Time;durP1;ratioP1;P1;durP2;ratioP2;P2;SDS_P1;SDS_P2;PMS_P1;PMS_P2;Temp;Humidity;BMP_temperature;BMP_pressure;BME280_temperature;BME280_humidity;BME280_pressure;Samples;Min_cycle;Max_cycle;Signal;HPM_P1;HPM_P2
2021/01/05 00:02:18;;;;;;;5.03;4.18;;;3.60;85.30;;;;;;4992469;28;20023;-94
2021/01/05 00:04:45;;;;;;;5.20;4.20;;;3.70;85.30;;;;;;4993889;28;20026;-94
2021/01/05 00:07:11;;;;;;;5.63;4.50;;;3.70;85.20;;;;;;4993402;28;20038;-94
2021/01/05 00:09:36;;;;;;;4.38;3.45;;;3.60;85.80;;;;;;4994948;28;20045;-93
2021/01/05 00:12:11;;;;;;;6.95;5.38;;;3.60;85.20;;;;;;4995454;28;20370;-94
2021/01/05 00:14:41;;;;;;;5.72;4.25;;;3.60;85.20;;;;;;4995337;28;20476;-94
2021/01/05 00:17:08;;;;;;;6.15;5.18;;;3.50;85.20;;;;;;5005833;28;20057;-94
2021/01/05 00:19:34;;;;;;;7.55;5.85;;;3.50;85.30;;;;;;5004461;28;20049;-94
2021/01/05 00:22:00;;;;;;;4.80;4.28;;;3.50;85.50;;;;;;5000438;28;20035;-94
2021/01/05 00:24:26;;;;;;;5.35;4.20;;;3.60;85.70;;;;;;5003479;28;20025;-94
2021/01/05 00:26:51;;;;;;;6.70;5.30;;;3.50;85.60;;;;;;5010484;28;20050;-93
2021/01/05 00:29:39;;;;;;;5.60;4.70;;;3.50;85.40;;;;;;4999970;28;20037;-95
2021/01/05 00:32:08;;;;;;;5.20;4.03;;;3.30;85.30;;;;;;5011147;28;20030;-95
2021/01/05 00:35:16;;;;;;;8.43;5.78;;;3.50;85.70;;;;;;4999671;28;20029;-95
2021/01/05 00:37:43;;;;;;;6.85;5.43;;;3.50;85.50;;;;;;5016873;28;20026;-94
2021/01/05 00:40:10;;;;;;;5.28;3.97;;;3.50;85.30;;;;;;5014839;28;20016;-94
2021/01/05 00:42:36;;;;;;;8.38;6.55;;;3.50;85.50;;;;;;4993221;28;20026;-93
2021/01/05 00:45:04;;;;;;;6.38;4.90;;;3.50;85.40;;;;;;4992974;28;20033;-94
2021/01/05 00:47:31;;;;;;;6.28;4.53;;;3.50;85.40;;;;;;4995989;28;20033;-94
2021/01/05 00:49:58;;;;;;;6.95;5.28;;;3.60;85.50;;;;;;5007107;28;20037;-93
2021/01/05 00:52:23;;;;;;;10.02;7.63;;;3.50;85.40;;;;;;4997178;28;20113;-93
2021/01/05 00:54:49;;;;;;;7.53;5.28;;;3.50;85.20;;;;;;4998067;28;20069;-93
2021/01/05 00:57:15;;;;;;;8.13;5.70;;;3.40;85.40;;;;;;4996930;28;20022;-95
2021/01/05 00:59:43;;;;;;;7.60;4.90;;;3.50;85.70;;;;;;4987654;28;20074;-94
2021/01/05 01:02:11;;;;;;;7.22;4.80;;;3.40;85.60;;;;;;4993195;28;20026;-93
2021/01/05 01:04:37;;;;;;;6.88;5.25;;;3.60;85.60;;;;;;4994301;28;20034;-95
2021/01/05 01:07:04;;;;;;;5.18;4.10;;;3.60;85.50;;;;;;4996837;28;20029;-93
2021/01/05 01:09:29;;;;;;;5.38;4.15;;;3.50;85.50;;;;;;4993067;28;20026;-92
2021/01/05 01:12:17;;;;;;;5.60;4.40;;;3.50;85.50;;;;;;4990417;28;20490;-93
2021/01/05 01:14:44;;;;;;;9.15;6.30;;;3.60;85.40;;;;;;4991102;28;20031;-92
2021/01/05 01:17:10;;;;;;;6.82;5.15;;;3.50;85.20;;;;;;4992322;28;20028;-92
2021/01/05 01:19:36;;;;;;;5.55;4.13;;;3.50;85.40;;;;;;4982359;28;20030;-94
2021/01/05 01:22:02;;;;;;;5.43;3.90;;;3.60;85.50;;;;;;4992767;28;20022;-92
2021/01/05 01:24:28;;;;;;;6.28;5.22;;;3.50;85.30;;;;;;4992637;28;20464;-93
2021/01/05 01:26:54;;;;;;;6.70;5.00;;;3.50;85.40;;;;;;4993827;28;20034;-93
2021/01/05 01:29:21;;;;;;;6.90;5.22;;;3.50;85.40;;;;;;5004351;28;20109;-94
2021/01/05 01:31:47;;;;;;;5.65;4.18;;;3.50;85.40;;;;;;4980516;28;20034;-93
2021/01/05 01:34:18;;;;;;;6.15;4.05;;;3.50;85.30;;;;;;4987400;28;20018;-92
2021/01/05 01:36:54;;;;;;;6.30;4.00;;;3.50;85.40;;;;;;4989574;28;20053;-92
2021/01/05 01:39:20;;;;;;;4.60;3.40;;;3.60;85.40;;;;;;4991198;28;20034;-91
2021/01/05 01:41:45;;;;;;;4.93;3.72;;;3.60;85.30;;;;;;4991382;28;20595;-92
2021/01/05 01:44:22;;;;;;;5.95;4.68;;;3.80;85.30;;;;;;4989098;28;20030;-91
2021/01/05 01:46:49;;;;;;;6.15;4.22;;;3.60;85.10;;;;;;4984732;28;20030;-91
2021/01/05 01:49:15;;;;;;;5.15;3.92;;;3.60;85.20;;;;;;4991201;28;20065;-92
2021/01/05 01:51:42;;;;;;;4.85;3.70;;;3.60;85.10;;;;;;4983740;28;20070;-92
2021/01/05 01:54:45;;;;;;;5.13;3.88;;;3.70;85.10;;;;;;4982325;28;20121;-92
2021/01/05 01:57:55;;;;;;;5.90;4.45;;;3.70;85.00;;;;;;4982588;28;20453;-91
2021/01/05 02:00:34;;;;;;;5.38;4.10;;;3.70;85.00;;;;;;4953293;28;20459;-90
2021/01/05 02:03:16;;;;;;;5.97;4.32;;;3.70;84.90;;;;;;4987483;28;20110;-92
2021/01/05 02:06:10;;;;;;;6.35;4.82;;;3.70;85.00;;;;;;4983632;28;20033;-91
2021/01/05 02:09:09;;;;;;;8.55;6.03;;;3.70;85.00;;;;;;4975072;28;20033;-91
2021/01/05 02:11:58;;;;;;;7.10;5.22;;;3.60;85.00;;;;;;5009486;28;20025;-91
2021/01/05 02:14:41;;;;;;;5.45;3.70;;;3.60;85.10;;;;;;4988140;28;20043;-91
2021/01/05 02:17:42;;;;;;;5.80;4.60;;;3.60;85.20;;;;;;4982456;28;20023;-92
2021/01/05 02:20:15;;;;;;;5.35;4.15;;;3.60;85.30;;;;;;4979241;28;20473;-92
2021/01/05 02:23:14;;;;;;;5.35;4.25;;;3.60;85.10;;;;;;4990063;28;20038;-92
2021/01/05 02:25:53;;;;;;;5.90;4.47;;;3.70;85.20;;;;;;4984465;28;20034;-93
2021/01/05 02:28:22;;;;;;;6.80;4.97;;;3.70;85.10;;;;;;4991581;28;20041;-92
2021/01/05 02:31:14;;;;;;;7.22;5.63;;;3.70;85.00;;;;;;4989089;28;20030;-92
2021/01/05 02:33:56;;;;;;;7.57;5.20;;;3.60;85.00;;;;;;4990503;28;20050;-91
2021/01/05 02:36:49;;;;;;;5.18;3.60;;;3.60;85.10;;;;;;4987938;28;20468;-90
2021/01/05 02:39:43;;;;;;;6.90;5.10;;;3.70;85.20;;;;;;4991105;28;20031;-92
2021/01/05 02:42:37;;;;;;;6.25;4.45;;;3.70;85.20;;;;;;4979817;28;20122;-93
2021/01/05 02:45:21;;;;;;;6.75;5.18;;;3.70;85.10;;;;;;4995397;28;20503;-91
2021/01/05 02:48:04;;;;;;;7.13;5.45;;;3.70;85.00;;;;;;4989877;28;20038;-92
2021/01/05 02:51:10;;;;;;;7.78;5.70;;;3.70;84.90;;;;;;4993366;28;20555;-93
2021/01/05 02:54:06;;;;;;;6.65;4.95;;;3.60;85.00;;;;;;4993365;28;20104;-92
2021/01/05 02:56:40;;;;;;;6.07;4.47;;;3.60;85.10;;;;;;4994100;28;20040;-93
2021/01/05 02:59:24;;;;;;;7.85;5.70;;;3.70;85.20;;;;;;5005426;28;20035;-92
2021/01/05 03:02:11;;;;;;;5.82;4.03;;;3.70;85.10;;;;;;4992465;28;20025;-93
2021/01/05 03:04:37;;;;;;;5.03;4.07;;;3.70;85.10;;;;;;4994975;28;20038;-94
2021/01/05 03:07:13;;;;;;;6.57;4.90;;;3.70;84.90;;;;;;4995190;28;20021;-92
2021/01/05 03:09:42;;;;;;;4.40;3.38;;;3.70;85.00;;;;;;4990264;28;20109;-93
2021/01/05 03:12:34;;;;;;;3.97;3.05;;;3.70;84.90;;;;;;4994899;28;20023;-91
2021/01/05 03:15:11;;;;;;;8.82;6.55;;;3.80;85.50;;;;;;4996270;28;20022;-91
2021/01/05 03:17:44;;;;;;;6.75;4.63;;;3.80;84.60;;;;;;4993300;28;20031;-92
2021/01/05 03:20:16;;;;;;;8.38;5.60;;;3.80;84.90;;;;;;4996037;28;20023;-91
2021/01/05 03:22:51;;;;;;;5.57;4.00;;;3.70;84.70;;;;;;4997976;28;20034;-91
2021/01/05 03:25:19;;;;;;;7.20;5.22;;;3.80;84.80;;;;;;5007830;28;20026;-90
2021/01/05 03:27:46;;;;;;;5.15;4.05;;;3.80;84.80;;;;;;4997697;28;20050;-91
2021/01/05 03:30:20;;;;;;;5.57;3.95;;;3.80;84.70;;;;;;4982330;28;20027;-92
2021/01/05 03:32:46;;;;;;;6.28;4.55;;;3.80;84.80;;;;;;4992058;28;20031;-92
2021/01/05 03:35:12;;;;;;;4.88;3.70;;;3.80;84.60;;;;;;4992880;28;20500;-92
2021/01/05 03:37:37;;;;;;;7.88;5.25;;;4.00;84.70;;;;;;5015237;28;20022;-91
2021/01/05 03:40:03;;;;;;;6.97;4.80;;;3.90;84.60;;;;;;5020565;28;20029;-93
2021/01/05 03:42:29;;;;;;;6.35;4.72;;;3.90;84.70;;;;;;5011956;28;20041;-93
2021/01/05 03:44:54;;;;;;;6.22;4.28;;;3.90;84.50;;;;;;5011427;28;20026;-92
2021/01/05 03:47:20;;;;;;;8.02;5.90;;;3.90;84.50;;;;;;5020524;28;20015;-92
2021/01/05 03:49:45;;;;;;;8.88;6.45;;;3.80;84.40;;;;;;5009014;28;20065;-92
2021/01/05 03:52:11;;;;;;;7.25;5.28;;;3.80;84.50;;;;;;5004975;28;20038;-91
2021/01/05 03:54:36;;;;;;;7.97;5.85;;;3.80;84.60;;;;;;5006671;28;20007;-92
2021/01/05 03:57:02;;;;;;;7.25;5.30;;;3.80;84.70;;;;;;5018137;28;20119;-91
2021/01/05 03:59:33;;;;;;;7.35;4.93;;;3.70;84.70;;;;;;5013936;28;20046;-92
2021/01/05 04:01:59;;;;;;;6.70;4.82;;;3.80;84.90;;;;;;5005546;28;20025;-92
2021/01/05 04:04:24;;;;;;;5.57;4.13;;;3.70;84.90;;;;;;5008873;28;20026;-92
2021/01/05 04:06:51;;;;;;;7.03;5.00;;;3.80;84.90;;;;;;5016063;28;20045;-92
2021/01/05 04:09:17;;;;;;;9.30;6.50;;;3.70;84.80;;;;;;5013238;28;20045;-93
2021/01/05 04:11:42;;;;;;;9.70;7.13;;;3.70;84.90;;;;;;4996281;28;20444;-91
2021/01/05 04:14:08;;;;;;;7.20;5.10;;;3.80;85.00;;;;;;4990185;28;20026;-91
2021/01/05 04:16:34;;;;;;;7.05;5.07;;;3.80;85.00;;;;;;4995145;28;20068;-92
2021/01/05 04:18:59;;;;;;;6.35;4.28;;;3.70;84.80;;;;;;4995526;28;20122;-92
2021/01/05 04:21:25;;;;;;;6.82;4.43;;;3.70;85.00;;;;;;4994430;28;20057;-91
2021/01/05 04:23:51;;;;;;;7.20;5.00;;;3.90;85.20;;;;;;4994362;28;20503;-91
2021/01/05 04:26:17;;;;;;;7.10;4.88;;;3.80;85.10;;;;;;4995612;28;20022;-92
2021/01/05 04:28:42;;;;;;;8.45;5.75;;;3.90;85.10;;;;;;4994812;28;20034;-92
2021/01/05 04:31:08;;;;;;;6.70;4.43;;;3.80;85.10;;;;;;4994802;28;20027;-92
2021/01/05 04:33:34;;;;;;;8.73;5.38;;;3.80;85.10;;;;;;4993969;28;20014;-92
2021/01/05 04:35:59;;;;;;;7.45;5.28;;;3.80;85.00;;;;;;4994120;28;20033;-92
2021/01/05 04:38:25;;;;;;;7.13;4.75;;;3.80;85.10;;;;;;4986336;28;20061;-93
2021/01/05 04:40:52;;;;;;;8.43;5.70;;;3.80;85.20;;;;;;4991457;28;20074;-90
2021/01/05 04:43:34;;;;;;;7.50;4.90;;;3.80;85.30;;;;;;4992534;28;20065;-91
2021/01/05 04:46:15;;;;;;;10.68;7.20;;;3.80;85.30;;;;;;4992695;28;20065;-92
2021/01/05 04:48:55;;;;;;;9.70;6.55;;;3.80;85.30;;;;;;4992112;28;20138;-92
2021/01/05 04:51:27;;;;;;;10.73;7.43;;;3.80;85.40;;;;;;4992908;28;20480;-92
2021/01/05 04:54:22;;;;;;;8.93;6.43;;;3.70;85.40;;;;;;4988952;28;20026;-92
2021/01/05 04:57:09;;;;;;;8.18;5.90;;;3.70;85.60;;;;;;4976112;28;20115;-93
2021/01/05 04:59:45;;;;;;;8.15;5.78;;;3.70;86.40;;;;;;4986847;28;20034;-91
2021/01/05 05:02:42;;;;;;;5.85;3.63;;;3.70;85.70;;;;;;4990251;28;20116;-92
2021/01/05 05:05:23;;;;;;;9.10;6.55;;;3.80;85.80;;;;;;4992478;28;20042;-93
2021/01/05 05:08:10;;;;;;;10.10;6.60;;;3.80;85.70;;;;;;4987790;28;20045;-91
2021/01/05 05:10:46;;;;;;;10.82;7.43;;;3.80;85.70;;;;;;4992705;28;20035;-91
2021/01/05 05:13:49;;;;;;;10.07;7.07;;;3.70;85.70;;;;;;5007245;28;20026;-90
2021/01/05 05:16:17;;;;;;;10.13;7.18;;;3.70;85.80;;;;;;4978805;28;20457;-94
2021/01/05 05:18:49;;;;;;;7.45;5.32;;;3.70;85.70;;;;;;4996302;28;20041;-93
2021/01/05 05:21:18;;;;;;;5.83;4.43;;;3.70;85.80;;;;;;5015200;28;20041;-94
2021/01/05 05:24:13;;;;;;;8.00;5.30;;;3.80;85.70;;;;;;4993043;28;20026;-94
2021/01/05 05:26:44;;;;;;;10.80;7.30;;;3.80;85.60;;;;;;4994474;28;20464;-94
2021/01/05 05:29:22;;;;;;;8.60;6.07;;;3.80;85.50;;;;;;4994180;28;20383;-94
2021/01/05 05:31:50;;;;;;;8.63;5.78;;;3.80;85.50;;;;;;4995819;28;20101;-93
2021/01/05 05:34:29;;;;;;;9.02;5.53;;;3.80;85.50;;;;;;4986766;28;20022;-93
2021/01/05 05:37:17;;;;;;;9.30;6.35;;;3.70;85.50;;;;;;4994088;28;20022;-95
2021/01/05 05:39:43;;;;;;;8.50;5.95;;;3.80;85.40;;;;;;4994519;28;20038;-94
2021/01/05 05:42:26;;;;;;;8.00;5.38;;;3.80;85.40;;;;;;4995101;28;20060;-94
2021/01/05 05:44:59;;;;;;;8.65;6.30;;;3.70;85.40;;;;;;4992182;28;20072;-92
2021/01/05 05:47:39;;;;;;;7.65;5.47;;;3.80;85.30;;;;;;4990308;28;20077;-94
2021/01/05 05:50:17;;;;;;;7.60;5.55;;;3.80;85.40;;;;;;4991418;28;20050;-93
2021/01/05 05:52:48;;;;;;;9.32;6.25;;;3.70;85.30;;;;;;4990259;28;20138;-93
2021/01/05 05:55:34;;;;;;;7.53;5.28;;;3.70;85.50;;;;;;4985338;28;20041;-93
2021/01/05 05:58:02;;;;;;;9.18;6.60;;;3.80;85.60;;;;;;4982328;28;20038;-93
2021/01/05 06:00:36;;;;;;;8.82;5.88;;;3.70;85.50;;;;;;4990121;28;20676;-93
2021/01/05 06:03:03;;;;;;;11.70;8.05;;;3.80;85.50;;;;;;4984629;28;20027;-95
2021/01/05 06:05:34;;;;;;;10.32;6.80;;;3.80;85.50;;;;;;4993266;28;20030;-96
2021/01/05 06:08:01;;;;;;;9.05;6.22;;;3.80;85.60;;;;;;5002039;28;20035;-95
2021/01/05 06:10:27;;;;;;;6.22;4.25;;;3.80;85.50;;;;;;4997033;28;20530;-96
2021/01/05 06:12:56;;;;;;;8.38;5.78;;;3.90;85.60;;;;;;4998126;28;20031;-96
2021/01/05 06:16:18;;;;;;;;;;;;;;;;;;;;;
2021/01/05 06:22:43;;;;;;;8.27;5.57;;;3.80;85.80;;;;;;5016002;28;20030;-96
2021/01/05 06:29:00;;;;;;;10.20;6.30;;;3.70;85.80;;;;;;4983185;28;20054;-94
2021/01/05 06:35:03;;;;;;;10.95;6.90;;;3.70;86.10;;;;;;4976404;28;20111;-96
2021/01/05 06:37:32;;;;;;;9.85;7.00;;;3.80;86.10;;;;;;4987295;28;20108;-95
2021/01/05 06:40:43;;;;;;;8.63;5.72;;;3.70;85.90;;;;;;4993306;28;20053;-91
2021/01/05 06:43:29;;;;;;;8.85;5.90;;;3.80;86.00;;;;;;4984861;28;20106;-91
2021/01/05 06:46:44;;;;;;;7.60;5.30;;;3.70;86.00;;;;;;4989223;28;20042;-92
2021/01/05 06:49:09;;;;;;;10.48;6.72;;;3.80;86.00;;;;;;4961080;28;20096;-87
2021/01/05 06:51:35;;;;;;;13.25;9.43;;;3.80;85.90;;;;;;5011197;28;20006;-92
2021/01/05 06:54:00;;;;;;;13.10;8.50;;;3.70;85.70;;;;;;5020780;28;20026;-92
2021/01/05 06:56:26;;;;;;;13.30;9.18;;;3.70;85.90;;;;;;5003634;28;20030;-92
2021/01/05 06:58:51;;;;;;;14.52;9.23;;;3.70;85.90;;;;;;4997781;28;20042;-91
2021/01/05 07:01:17;;;;;;;11.52;7.30;;;3.70;86.00;;;;;;4987659;28;20113;-92
2021/01/05 07:03:43;;;;;;;10.60;7.22;;;3.70;86.00;;;;;;4993275;28;20034;-92
2021/01/05 07:06:08;;;;;;;9.23;6.35;;;3.60;86.00;;;;;;4991037;28;20068;-91
2021/01/05 07:08:34;;;;;;;9.90;6.65;;;3.70;86.10;;;;;;4992398;28;20050;-92
2021/01/05 07:10:59;;;;;;;11.77;7.57;;;3.70;86.00;;;;;;4990877;28;20105;-92
2021/01/05 07:13:25;;;;;;;11.38;7.60;;;3.70;86.00;;;;;;4999649;28;20018;-92
2021/01/05 07:15:53;;;;;;;11.82;7.70;;;3.70;86.00;;;;;;4993726;28;20054;-95
2021/01/05 07:18:18;;;;;;;7.60;4.57;;;3.80;86.10;;;;;;4994140;28;20530;-95
2021/01/05 07:20:44;;;;;;;9.02;6.03;;;3.90;86.00;;;;;;5003396;28;20042;-96
2021/01/05 07:23:09;;;;;;;11.98;7.90;;;3.90;85.80;;;;;;4994672;28;20072;-94
2021/01/05 07:25:35;;;;;;;10.45;7.05;;;3.90;85.80;;;;;;4992490;28;20142;-90
2021/01/05 07:28:00;;;;;;;12.65;7.97;;;3.80;85.80;;;;;;4986653;28;20145;-91
2021/01/05 07:30:26;;;;;;;12.57;8.55;;;3.80;85.70;;;;;;4991928;28;20030;-90
2021/01/05 07:32:52;;;;;;;9.25;5.70;;;3.70;85.80;;;;;;4989037;28;20048;-94
2021/01/05 07:35:17;;;;;;;8.05;5.45;;;3.80;86.00;;;;;;4991664;28;20412;-93
2021/01/05 07:37:44;;;;;;;11.20;7.03;;;3.90;86.00;;;;;;4993018;28;20062;-95
2021/01/05 07:40:12;;;;;;;8.20;5.28;;;3.90;85.90;;;;;;4994796;28;20034;-96
2021/01/05 07:42:38;;;;;;;8.63;5.28;;;3.90;85.90;;;;;;4993219;28;20022;-91
2021/01/05 07:45:08;;;;;;;9.43;6.15;;;4.00;85.80;;;;;;4992857;28;20138;-91
2021/01/05 07:47:37;;;;;;;9.40;5.90;;;4.00;85.50;;;;;;4992066;28;20037;-89
2021/01/05 07:50:06;;;;;;;10.38;6.90;;;4.00;85.50;;;;;;4991403;28;20022;-92
2021/01/05 07:52:39;;;;;;;10.00;6.72;;;3.90;85.50;;;;;;4989422;28;20050;-92
2021/01/05 07:55:13;;;;;;;;;;;3.90;85.60;;;;;;4993136;28;20022;-92
2021/01/05 07:57:39;;;;;;;9.65;6.45;;;3.90;85.50;;;;;;4995416;28;19914;-92
2021/01/05 08:00:06;;;;;;;11.20;7.88;;;3.90;85.60;;;;;;4995137;28;20051;-94
2021/01/05 08:02:36;;;;;;;10.98;6.97;;;3.90;85.70;;;;;;4993969;28;20126;-90
2021/01/05 08:05:03;;;;;;;8.70;5.65;;;3.90;85.70;;;;;;4996469;28;20034;-95
2021/01/05 08:07:38;;;;;;;7.78;5.20;;;3.90;85.70;;;;;;5002289;28;20030;-92
2021/01/05 08:10:05;;;;;;;8.63;5.93;;;4.00;85.60;;;;;;4996464;28;20041;-88
2021/01/05 08:12:31;;;;;;;8.38;5.97;;;4.00;85.40;;;;;;5001871;28;20027;-93
2021/01/05 08:14:59;;;;;;;9.82;6.78;;;4.10;85.40;;;;;;5006483;28;20029;-92
2021/01/05 08:17:25;;;;;;;9.68;6.72;;;4.00;85.30;;;;;;5003757;28;20190;-94
2021/01/05 08:19:51;;;;;;;9.93;7.05;;;4.00;85.30;;;;;;5073200;23;20037;-92
2021/01/05 08:22:19;;;;;;;8.73;5.75;;;4.10;85.30;;;;;;5038113;28;20069;-95
2021/01/05 08:24:45;;;;;;;7.82;5.47;;;4.10;85.20;;;;;;5085084;23;20049;-96
2021/01/05 08:27:12;;;;;;;10.50;6.80;;;4.10;85.10;;;;;;5269813;23;20070;-92
2021/01/05 08:29:38;;;;;;;10.95;7.40;;;4.10;85.00;;;;;;5024976;28;20086;-92
2021/01/05 08:32:04;;;;;;;10.35;7.38;;;4.10;85.10;;;;;;5018980;28;20018;-91
2021/01/05 08:34:30;;;;;;;9.30;6.50;;;4.10;85.00;;;;;;5015560;28;20046;-94
2021/01/05 08:37:04;;;;;;;10.65;7.72;;;4.10;84.90;;;;;;5000673;28;20030;-93
2021/01/05 08:39:40;;;;;;;7.95;6.00;;;4.10;84.80;;;;;;4995871;28;20046;-95
2021/01/05 08:42:13;;;;;;;9.05;6.38;;;4.10;84.80;;;;;;4996992;28;20036;-96
2021/01/05 08:44:39;;;;;;;9.38;6.65;;;4.10;84.80;;;;;;5009912;28;20041;-88
2021/01/05 08:47:12;;;;;;;9.02;6.38;;;4.10;84.80;;;;;;4999911;28;20038;-96
2021/01/05 08:49:37;;;;;;;12.30;8.73;;;4.10;84.70;;;;;;4989963;28;20035;-94
2021/01/05 08:52:03;;;;;;;8.10;5.68;;;4.00;84.30;;;;;;4988657;28;20038;-88
2021/01/05 08:54:29;;;;;;;11.27;8.18;;;4.10;84.50;;;;;;5004785;28;20036;-93
2021/01/05 08:56:59;;;;;;;11.02;7.55;;;4.10;84.50;;;;;;4996503;28;20036;-94
2021/01/05 08:59:26;;;;;;;8.23;6.00;;;4.00;84.50;;;;;;4994678;28;20043;-93
2021/01/05 09:01:52;;;;;;;10.57;7.32;;;4.00;84.50;;;;;;5001552;28;20030;-96
2021/01/05 09:04:18;;;;;;;10.60;7.57;;;3.90;84.40;;;;;;4999027;28;20046;-90
2021/01/05 09:06:48;;;;;;;9.60;6.57;;;3.90;84.20;;;;;;4991613;28;20132;-90
2021/01/05 09:09:15;;;;;;;10.73;7.93;;;3.90;84.30;;;;;;4997635;28;20161;-95
2021/01/05 09:11:41;;;;;;;9.45;6.65;;;3.90;84.20;;;;;;4992211;28;20049;-94
2021/01/05 09:14:07;;;;;;;9.38;6.50;;;3.90;84.30;;;;;;5003772;28;20026;-95
2021/01/05 09:16:33;;;;;;;8.40;6.10;;;4.00;84.30;;;;;;5008794;28;20046;-95
2021/01/05 09:18:59;;;;;;;8.85;6.63;;;4.00;84.30;;;;;;4995913;28;20026;-95
2021/01/05 09:21:27;;;;;;;8.35;6.00;;;4.00;84.20;;;;;;4991857;28;20045;-91
2021/01/05 09:24:03;;;;;;;8.40;6.00;;;4.10;84.30;;;;;;4990943;28;20030;-89
2021/01/05 09:26:32;;;;;;;10.63;7.53;;;4.10;84.10;;;;;;5007158;28;20064;-93
2021/01/05 09:28:58;;;;;;;9.30;6.85;;;4.10;84.00;;;;;;4985592;28;20034;-91
2021/01/05 09:31:24;;;;;;;10.07;6.78;;;4.10;83.90;;;;;;4987693;28;20038;-92
2021/01/05 09:33:50;;;;;;;8.85;6.45;;;4.10;83.90;;;;;;4986961;28;20030;-94
2021/01/05 09:36:16;;;;;;;11.82;8.25;;;4.10;83.90;;;;;;4996419;28;20018;-95
2021/01/05 09:38:43;;;;;;;9.02;6.05;;;4.10;83.60;;;;;;4993227;28;20042;-92
2021/01/05 09:41:23;;;;;;;8.57;6.30;;;4.10;83.70;;;;;;4992351;28;20022;-91
2021/01/05 09:43:49;;;;;;;6.20;4.80;;;4.10;83.60;;;;;;4991500;28;20034;-92
2021/01/05 09:46:15;;;;;;;6.47;5.00;;;4.10;83.60;;;;;;4995827;28;20054;-91
2021/01/05 09:48:42;;;;;;;9.23;7.18;;;4.20;83.20;;;;;;4995179;28;20042;-94
2021/01/05 09:51:08;;;;;;;7.30;5.47;;;4.10;83.30;;;;;;5002159;28;20019;-95
2021/01/05 09:53:35;;;;;;;6.20;4.97;;;4.10;83.30;;;;;;5004156;28;20033;-93
2021/01/05 09:56:00;;;;;;;7.95;6.15;;;4.20;83.30;;;;;;5014190;28;20021;-96
2021/01/05 09:58:26;;;;;;;8.20;6.07;;;4.00;82.80;;;;;;5016462;28;20026;-93
2021/01/05 10:00:51;;;;;;;9.32;6.45;;;4.10;82.90;;;;;;5017371;28;20022;-93
2021/01/05 10:03:20;;;;;;;7.43;5.70;;;4.00;82.80;;;;;;5130239;23;20034;-96
2021/01/05 10:05:48;;;;;;;6.85;4.53;;;4.00;83.00;;;;;;5021162;28;20034;-94
2021/01/05 10:08:13;;;;;;;7.05;5.43;;;4.10;83.10;;;;;;5015148;28;20112;-93
2021/01/05 10:10:39;;;;;;;5.45;4.38;;;4.10;83.10;;;;;;5016283;28;20460;-91
2021/01/05 10:13:04;;;;;;;7.22;5.40;;;4.20;83.10;;;;;;5012817;28;20022;-92
2021/01/05 10:15:33;;;;;;;6.00;4.65;;;4.20;82.90;;;;;;5022723;28;20061;-96
2021/01/05 10:18:02;;;;;;;6.18;5.13;;;4.20;82.90;;;;;;5017277;28;20026;-92
2021/01/05 10:20:28;;;;;;;7.05;5.25;;;4.20;82.90;;;;;;5014409;28;20042;-93
2021/01/05 10:22:54;;;;;;;7.45;4.93;;;4.20;82.90;;;;;;5007026;28;20117;-94
2021/01/05 10:25:20;;;;;;;7.60;5.25;;;4.20;82.90;;;;;;5009519;28;20058;-92
2021/01/05 10:27:45;;;;;;;5.95;4.47;;;4.20;82.80;;;;;;5011444;28;20029;-93
2021/01/05 10:30:11;;;;;;;6.70;4.63;;;4.30;82.90;;;;;;5012602;28;20026;-93
2021/01/05 10:32:37;;;;;;;7.97;5.65;;;4.30;82.80;;;;;;5014252;28;20034;-91
2021/01/05 10:35:04;;;;;;;5.75;4.38;;;4.30;82.70;;;;;;5002463;28;20022;-91
2021/01/05 10:37:29;;;;;;;10.57;7.72;;;4.30;82.70;;;;;;4995772;28;20058;-90
2021/01/05 10:39:55;;;;;;;7.53;5.55;;;4.20;82.30;;;;;;5005942;28;20068;-92
2021/01/05 10:42:20;;;;;;;8.30;6.10;;;4.20;82.70;;;;;;5009877;28;20037;-95
2021/01/05 10:44:49;;;;;;;6.57;4.95;;;4.20;82.70;;;;;;5008872;28;20221;-96
2021/01/05 10:47:15;;;;;;;7.57;5.80;;;4.20;82.70;;;;;;5003524;28;20048;-90
2021/01/05 10:49:42;;;;;;;5.85;3.95;;;4.20;82.70;;;;;;4995106;28;20013;-90
2021/01/05 10:52:15;;;;;;;5.97;4.50;;;4.30;82.70;;;;;;5001654;28;20025;-90
2021/01/05 10:54:40;;;;;;;8.20;6.28;;;4.30;82.70;;;;;;5007836;28;20135;-93
2021/01/05 10:57:07;;;;;;;5.57;4.35;;;4.30;82.50;;;;;;5018898;28;20026;-91
2021/01/05 10:59:33;;;;;;;7.70;6.03;;;4.30;82.50;;;;;;4998955;28;20049;-93
2021/01/05 11:02:02;;;;;;;7.50;5.68;;;4.30;82.50;;;;;;5003117;28;20026;-93
2021/01/05 11:04:31;;;;;;;5.93;4.38;;;4.40;82.60;;;;;;5001993;28;20093;-93
2021/01/05 11:07:00;;;;;;;11.63;8.50;;;4.30;82.50;;;;;;5012862;28;20074;-93
2021/01/05 11:09:28;;;;;;;8.77;6.28;;;4.30;82.20;;;;;;5006032;28;20116;-92
2021/01/05 11:12:10;;;;;;;8.30;6.38;;;4.20;82.40;;;;;;5008396;28;20022;-92
2021/01/05 11:14:37;;;;;;;7.35;5.50;;;4.20;82.70;;;;;;4995993;28;20034;-91
2021/01/05 11:17:05;;;;;;;8.02;6.15;;;4.30;82.80;;;;;;5005263;28;20045;-90
2021/01/05 11:19:31;;;;;;;8.02;5.97;;;4.20;82.70;;;;;;5010422;28;20061;-90
2021/01/05 11:21:59;;;;;;;8.27;6.05;;;4.20;82.70;;;;;;5013826;28;20617;-92
2021/01/05 11:24:26;;;;;;;9.02;5.85;;;4.30;82.80;;;;;;5019045;28;20037;-91
2021/01/05 11:26:53;;;;;;;10.23;7.38;;;4.40;82.80;;;;;;5006806;28;20069;-90
2021/01/05 11:29:19;;;;;;;8.60;6.15;;;4.40;82.70;;;;;;5017706;28;20060;-90
2021/01/05 11:31:51;;;;;;;8.85;6.18;;;4.30;82.70;;;;;;5007062;28;20122;-91
2021/01/05 11:34:17;;;;;;;8.38;5.82;;;4.30;82.70;;;;;;5006497;28;20093;-91
2021/01/05 11:36:42;;;;;;;11.60;8.20;;;4.40;82.80;;;;;;4998764;28;20273;-90
2021/01/05 11:39:08;;;;;;;14.85;10.32;;;4.40;82.80;;;;;;5008030;28;20038;-90
2021/01/05 11:41:36;;;;;;;12.30;8.95;;;4.30;82.80;;;;;;4998769;28;20065;-91
2021/01/05 11:44:03;;;;;;;11.18;7.75;;;4.30;82.90;;;;;;5004732;28;20026;-89
2021/01/05 11:46:28;;;;;;;13.35;9.23;;;4.30;83.00;;;;;;5003186;28;20034;-91
2021/01/05 11:48:55;;;;;;;8.80;5.97;;;4.30;83.10;;;;;;5002706;28;20026;-91
2021/01/05 11:51:27;;;;;;;11.48;7.68;;;4.40;83.10;;;;;;5009923;28;20029;-91
2021/01/05 11:53:53;;;;;;;11.43;8.07;;;4.30;83.10;;;;;;5004225;28;20027;-91
2021/01/05 11:56:21;;;;;;;16.05;11.30;;;4.40;83.10;;;;;;5009760;28;20029;-91
2021/01/05 11:58:47;;;;;;;13.88;9.63;;;4.30;83.20;;;;;;5011398;28;20041;-90
2021/01/05 12:01:13;;;;;;;10.20;7.20;;;4.20;83.50;;;;;;5009852;28;20029;-90
2021/01/05 12:03:40;;;;;;;9.95;7.00;;;4.30;83.80;;;;;;5008123;28;20030;-93
2021/01/05 12:06:15;;;;;;;10.80;7.68;;;4.30;83.70;;;;;;5007831;28;20033;-93
2021/01/05 12:08:41;;;;;;;10.57;7.45;;;4.30;83.70;;;;;;5005284;28;20037;-91
2021/01/05 12:11:07;;;;;;;10.32;7.53;;;4.30;83.70;;;;;;5004688;28;20030;-96
2021/01/05 12:13:32;;;;;;;11.23;7.75;;;4.30;83.70;;;;;;5008315;28;20032;-96
2021/01/05 12:15:58;;;;;;;12.32;8.93;;;4.30;83.80;;;;;;5018061;28;20072;-93
2021/01/05 12:18:23;;;;;;;10.82;7.35;;;4.30;83.80;;;;;;5002805;28;20030;-94
2021/01/05 12:20:49;;;;;;;14.77;10.57;;;4.30;83.80;;;;;;5013535;28;20039;-91
2021/01/05 12:23:22;;;;;;;11.20;7.95;;;4.30;83.90;;;;;;5016342;28;20014;-96
2021/01/05 12:25:47;;;;;;;10.70;7.85;;;4.30;84.10;;;;;;5016415;28;20033;-93
2021/01/05 12:28:13;;;;;;;9.60;7.25;;;4.30;84.00;;;;;;5025063;28;20118;-91
2021/01/05 12:30:40;;;;;;;8.73;6.10;;;4.30;84.00;;;;;;5021334;28;20045;-90
2021/01/05 12:33:05;;;;;;;12.40;8.75;;;4.30;83.90;;;;;;5008932;28;20136;-90
2021/01/05 12:35:31;;;;;;;8.30;5.85;;;4.30;83.90;;;;;;5030542;28;20025;-94
2021/01/05 12:37:56;;;;;;;11.48;7.70;;;4.40;83.90;;;;;;5028319;28;20038;-91
2021/01/05 12:40:22;;;;;;;11.00;7.95;;;4.30;83.80;;;;;;5011863;28;20112;-90
2021/01/05 12:42:48;;;;;;;9.50;6.90;;;4.30;83.80;;;;;;5011882;28;20056;-94
2021/01/05 12:45:13;;;;;;;9.65;6.97;;;4.40;83.80;;;;;;5015696;28;20022;-92
2021/01/05 12:47:40;;;;;;;12.52;8.93;;;4.40;83.80;;;;;;5028346;28;20302;-92
2021/01/05 12:50:07;;;;;;;11.50;7.95;;;4.40;83.70;;;;;;5012803;28;20030;-91
2021/01/05 12:52:35;;;;;;;11.05;7.72;;;4.40;83.70;;;;;;5011957;28;20072;-91
2021/01/05 12:55:00;;;;;;;9.85;6.60;;;4.40;83.70;;;;;;5012376;28;20023;-92
2021/01/05 12:57:27;;;;;;;9.20;6.80;;;4.50;83.70;;;;;;5003054;28;20057;-92
2021/01/05 12:59:53;;;;;;;8.57;5.95;;;4.50;83.70;;;;;;5021879;28;20041;-92
2021/01/05 13:02:21;;;;;;;8.93;6.60;;;4.60;83.70;;;;;;5026260;28;20024;-91
2021/01/05 13:04:47;;;;;;;10.45;7.10;;;4.50;83.60;;;;;;5025761;28;20026;-93
2021/01/05 13:07:18;;;;;;;7.63;5.78;;;4.50;83.50;;;;;;5014165;28;20027;-91
2021/01/05 13:09:44;;;;;;;8.02;5.07;;;4.50;83.50;;;;;;5021288;28;20026;-96
2021/01/05 13:12:15;;;;;;;9.00;6.28;;;4.60;83.50;;;;;;5395864;23;20038;-92
2021/01/05 13:14:42;;;;;;;11.30;7.75;;;4.60;83.50;;;;;;4997262;28;20392;-91
2021/01/05 13:17:08;;;;;;;14.82;10.63;;;4.50;83.40;;;;;;4993200;28;20030;-91
2021/01/05 13:19:33;;;;;;;9.45;6.75;;;4.50;83.30;;;;;;4990018;28;20089;-90
2021/01/05 13:21:59;;;;;;;14.98;9.73;;;4.40;83.60;;;;;;4989066;28;20022;-92
2021/01/05 13:24:28;;;;;;;10.98;7.97;;;4.50;83.70;;;;;;4991371;28;20070;-90
2021/01/05 13:26:57;;;;;;;10.25;6.80;;;4.40;83.60;;;;;;4989535;28;20468;-95